Time;durP1;ratioP1;P1;durP2;ratioP2;P2;SDS_P1;SDS_P2;PMS_P1;PMS_P2;Temp;Humidity;BMP_temperature;BMP_pressure;BME280_temperature;BME280_humidity;BME280_pressure;Samples;Min_cycle;Max_cycle;Signal;HPM_P1;HPM_P2
2022/03/09 00:00:44;;;;;;;;;;;;;;;4.26;42.37;101100.84;6080918;23;6938;-76
2022/03/09 00:03:10;;;;;;;;;;;;;;;4.20;42.42;101102.84;6081337;23;6966;-76
2022/03/09 00:05:36;;;;;;;;;;;;;;;4.15;42.66;101109.16;6080685;23;6994;-76
2022/03/09 00:08:02;;;;;;;;;;;;;;;4.10;42.20;101115.50;6081853;23;7348;-76
2022/03/09 00:10:27;;;;;;;;;;;;;;;4.03;42.41;101114.09;6081226;23;7265;-76
2022/03/09 00:12:53;;;;;;;;;;;;;;;3.96;43.26;101112.69;6083494;23;6787;-76
2022/03/09 00:15:19;;;;;;;;;;;;;;;3.89;42.44;101116.31;6105996;23;6771;-76
2022/03/09 00:17:45;;;;;;;;;;;;;;;3.83;42.23;101122.50;6057938;23;6858;-76
2022/03/09 00:20:11;;;;;;;;;;;;;;;3.77;42.74;101121.97;6082973;23;6771;-76
2022/03/09 00:22:36;;;;;;;;;;;;;;;3.71;43.24;101123.25;6081209;23;6770;-76
2022/03/09 00:25:03;;;;;;;;;;;;;;;3.67;42.96;101120.28;6081501;23;6938;-76
2022/03/09 00:27:30;;;;;;;;;;;;;;;3.63;43.39;101120.81;6081496;23;7149;-76
2022/03/09 00:29:56;;;;;;;;;;;;;;;3.61;42.78;101125.72;6084179;23;7150;-76
2022/03/09 00:32:22;;;;;;;;;;;;;;;3.59;43.17;101127.25;6080599;23;6850;-76
2022/03/09 00:34:47;;;;;;;;;;;;;;;3.54;43.59;101126.84;6082771;23;6961;-76
2022/03/09 00:37:13;;;;;;;;;;;;;;;3.51;43.89;101128.22;6082790;23;6767;-76
2022/03/09 00:39:39;;;;;;;;;;;;;;;3.46;43.26;101117.66;6081521;23;6771;-76
2022/03/09 00:42:05;;;;;;;;;;;;;;;3.46;43.71;101127.81;6082089;23;6848;-76
2022/03/09 00:44:31;;;;;;;;;;;;;;;3.43;43.89;101123.34;6080990;23;7367;-76
2022/03/09 00:46:56;;;;;;;;;;;;;;;3.44;44.02;101125.13;6083888;23;6859;-76
2022/03/09 00:49:23;;;;;;;;;;;;;;;3.47;43.10;101129.56;6106596;23;7344;-76
2022/03/09 00:51:48;;;;;;;;;;;;;;;3.51;43.59;101123.13;6082008;23;7103;-76
2022/03/09 00:54:14;;;;;;;;;;;;;;;3.57;43.55;101126.19;6081750;23;6806;-76
2022/03/09 00:56:40;;;;;;;;;;;;;;;3.61;43.28;101128.25;6080775;23;6771;-76
2022/03/09 00:59:06;;;;;;;;;;;;;;;3.66;43.78;101134.59;6080932;23;7339;-76
2022/03/09 01:01:31;;;;;;;;;;;;;;;3.71;43.57;101124.88;6054892;23;6951;-76
2022/03/09 01:03:57;;;;;;;;;;;;;;;3.77;43.30;101132.13;6082734;23;6767;-76
2022/03/09 01:06:23;;;;;;;;;;;;;;;3.80;42.96;101122.25;6082936;23;6778;-76
2022/03/09 01:08:49;;;;;;;;;;;;;;;3.82;42.95;101129.25;6105351;23;6937;-76
2022/03/09 01:11:15;;;;;;;;;;;;;;;3.83;43.89;101127.59;6080786;23;6771;-76
2022/03/09 01:13:41;;;;;;;;;;;;;;;3.84;43.22;101130.28;6081936;23;6838;-76
2022/03/09 01:16:06;;;;;;;;;;;;;;;3.85;42.88;101131.13;6057621;23;7299;-76
2022/03/09 01:18:32;;;;;;;;;;;;;;;3.87;42.93;101130.53;6083270;23;6775;-76
2022/03/09 01:20:59;;;;;;;;;;;;;;;3.90;43.14;101127.38;6057107;23;7402;-76
2022/03/09 01:23:25;;;;;;;;;;;;;;;3.93;42.64;101122.56;6082485;23;6786;-76
2022/03/09 01:25:51;;;;;;;;;;;;;;;3.97;43.14;101127.16;6083641;23;7038;-76
2022/03/09 01:28:18;;;;;;;;;;;;;;;3.98;43.17;101120.41;6080959;23;7800;-76
2022/03/09 01:30:43;;;;;;;;;;;;;;;4.00;43.27;101122.34;6082498;23;6859;-76
2022/03/09 01:33:09;;;;;;;;;;;;;;;4.00;43.73;101127.41;6080989;23;6934;-76
2022/03/09 01:35:35;;;;;;;;;;;;;;;3.99;42.59;101125.63;6081862;23;6985;-76
2022/03/09 01:38:01;;;;;;;;;;;;;;;3.96;43.01;101122.84;6081935;23;6803;-76
2022/03/09 01:40:27;;;;;;;;;;;;;;;3.94;42.90;101116.72;6083542;23;6782;-76
2022/03/09 01:42:53;;;;;;;;;;;;;;;3.91;43.14;101108.84;6084131;23;6889;-76
2022/03/09 01:45:20;;;;;;;;;;;;;;;3.88;43.29;101106.94;6083418;23;7274;-76
2022/03/09 01:47:47;;;;;;;;;;;;;;;3.88;42.60;101106.06;6084342;23;6819;-76
2022/03/09 01:50:13;;;;;;;;;;;;;;;3.89;43.74;101113.78;6083905;23;6790;-76
2022/03/09 01:52:41;;;;;;;;;;;;;;;3.90;43.11;101117.22;6082034;23;6770;-76
2022/03/09 01:55:08;;;;;;;;;;;;;;;3.90;43.12;101114.69;6083613;23;6978;-76
2022/03/09 01:57:34;;;;;;;;;;;;;;;3.89;42.92;101112.91;6083349;23;6783;-76
2022/03/09 02:00:02;;;;;;;;;;;;;;;3.87;43.21;101106.81;6085254;23;6998;-76
2022/03/09 02:02:27;;;;;;;;;;;;;;;3.87;43.50;101104.28;6081052;23;6782;-76
2022/03/09 02:04:53;;;;;;;;;;;;;;;3.89;43.02;101105.31;6085418;23;7783;-76
2022/03/09 02:09:41;;;;;;;;;;;;;;;3.90;42.58;101107.06;6085084;23;7169;-76
2022/03/09 02:10:07;;;;;;;;;;;;;;;3.91;43.47;101101.25;6082553;23;6795;-76
2022/03/09 02:12:33;;;;;;;;;;;;;;;3.95;43.71;101098.19;6082661;23;7116;-76
2022/03/09 02:15:00;;;;;;;;;;;;;;;3.96;42.66;101105.09;6083380;23;6806;-76
2022/03/09 02:17:28;;;;;;;;;;;;;;;3.97;42.45;101103.41;6085587;23;6874;-76
2022/03/09 02:19:56;;;;;;;;;;;;;;;3.97;43.09;101100.88;6107094;23;6787;-76
2022/03/09 02:22:33;;;;;;;;;;;;;;;3.97;42.93;101098.34;6082555;23;7177;-76
2022/03/09 02:25:02;;;;;;;;;;;;;;;3.96;43.41;101101.66;6083805;23;7128;-76
2022/03/09 02:27:28;;;;;;;;;;;;;;;3.94;43.84;101096.44;6107205;23;6787;-76
2022/03/09 02:29:55;;;;;;;;;;;;;;;3.92;42.96;101095.41;6083492;23;6775;-76
2022/03/09 02:32:22;;;;;;;;;;;;;;;3.89;43.53;101096.03;6057282;23;7264;-75
2022/03/09 02:34:49;;;;;;;;;;;;;;;3.89;43.23;101092.63;6083136;23;7012;-75
2022/03/09 02:37:15;;;;;;;;;;;;;;;3.87;43.47;101092.47;6058907;23;7424;-75
2022/03/09 02:39:41;;;;;;;;;;;;;;;3.85;43.77;101086.41;6082207;23;6783;-75
2022/03/09 02:42:08;;;;;;;;;;;;;;;3.81;43.76;101084.34;6058185;23;6854;-75
2022/03/09 02:44:34;;;;;;;;;;;;;;;3.80;42.81;101081.69;6082749;23;6783;-75
2022/03/09 02:47:00;;;;;;;;;;;;;;;3.77;43.11;101081.41;6108240;23;7120;-75
2022/03/09 02:49:25;;;;;;;;;;;;;;;3.75;44.04;101078.75;6084942;23;6774;-75
2022/03/09 02:51:51;;;;;;;;;;;;;;;3.73;42.77;101078.59;6082495;23;6959;-75
2022/03/09 02:54:18;;;;;;;;;;;;;;;3.69;43.16;101079.13;6058300;23;6855;-75
2022/03/09 02:56:44;;;;;;;;;;;;;;;3.66;43.43;101072.88;6083118;23;7066;-75
2022/03/09 02:59:10;;;;;;;;;;;;;;;3.66;44.04;101072.88;6059009;23;6771;-75
2022/03/09 03:01:37;;;;;;;;;;;;;;;3.65;43.45;101078.72;6085485;23;6858;-75
2022/03/09 03:04:02;;;;;;;;;;;;;;;3.64;43.04;101084.53;6063340;23;6972;-75
2022/03/09 03:06:28;;;;;;;;;;;;;;;3.62;43.49;101081.88;6085977;23;7035;-75
2022/03/09 03:08:54;;;;;;;;;;;;;;;3.60;43.40;101081.72;6086918;23;6838;-75
2022/03/09 03:11:20;;;;;;;;;;;;;;;3.59;43.94;101084.16;6086960;23;6767;-75
2022/03/09 03:13:48;;;;;;;;;;;;;;;3.56;43.35;101082.22;6088322;23;6944;-75
2022/03/09 03:16:14;;;;;;;;;;;;;;;3.54;43.48;101077.78;6086644;23;7027;-75
2022/03/09 03:18:40;;;;;;;;;;;;;;;3.51;43.58;101075.84;6087309;23;6774;-75
2022/03/09 03:21:06;;;;;;;;;;;;;;;3.48;43.75;101083.19;6091330;23;6854;-75
2022/03/09 03:23:34;;;;;;;;;;;;;;;3.44;43.98;101084.56;6116900;23;6786;-75
2022/03/09 03:26:04;;;;;;;;;;;;;;;3.40;44.23;101074.03;6116684;23;6845;-75
2022/03/09 03:28:30;;;;;;;;;;;;;;;3.35;44.10;101068.56;6116712;23;6860;-75
2022/03/09 03:30:56;;;;;;;;;;;;;;;3.31;43.90;101069.06;6117622;23;6948;-76
2022/03/09 03:33:21;;;;;;;;;;;;;;;3.28;43.73;101063.69;6139568;23;6842;-76
2022/03/09 03:35:49;;;;;;;;;;;;;;;3.26;44.06;101070.28;6116455;23;7752;-76
2022/03/09 03:38:16;;;;;;;;;;;;;;;3.22;44.59;101075.84;6117787;23;6978;-76
2022/03/09 03:40:42;;;;;;;;;;;;;;;3.19;44.52;101073.94;6092661;23;6783;-76
2022/03/09 03:43:08;;;;;;;;;;;;;;;3.17;43.80;101075.44;6114357;23;6787;-75
2022/03/09 03:45:34;;;;;;;;;;;;;;;3.17;43.77;101072.91;6068101;23;7230;-75
2022/03/09 03:48:00;;;;;;;;;;;;;;;3.16;44.14;101074.53;6116759;23;6790;-75
2022/03/09 03:50:26;;;;;;;;;;;;;;;3.15;43.60;101072.75;6091633;23;6882;-75
2022/03/09 03:52:52;;;;;;;;;;;;;;;3.14;44.22;101080.22;6114663;23;6920;-74
2022/03/09 03:55:18;;;;;;;;;;;;;;;3.11;43.99;101068.19;6117081;23;7010;-74
2022/03/09 03:57:44;;;;;;;;;;;;;;;3.10;44.24;101074.00;6117002;23;6839;-74
2022/03/09 04:00:12;;;;;;;;;;;;;;;3.09;43.60;101071.34;6116597;23;6850;-74
2022/03/09 04:02:38;;;;;;;;;;;;;;;3.07;44.45;101070.31;6088685;23;7155;-74
2022/03/09 04:05:05;;;;;;;;;;;;;;;3.04;44.62;101068.38;6114065;23;6854;-74
2022/03/09 04:07:31;;;;;;;;;;;;;;;3.03;44.40;101072.56;6113295;23;7160;-74
2022/03/09 04:09:57;;;;;;;;;;;;;;;3.01;44.85;101070.66;6111903;23;6787;-74
2022/03/09 04:12:23;;;;;;;;;;;;;;;3.00;43.84;101071.41;6111399;23;6758;-74
2022/03/09 04:14:51;;;;;;;;;;;;;;;2.99;44.49;101067.06;6109968;23;7211;-74
2022/03/09 04:17:17;;;;;;;;;;;;;;;2.98;44.46;101077.97;6111305;23;7182;-75
2022/03/09 04:19:42;;;;;;;;;;;;;;;2.97;44.49;101078.72;6087327;23;6771;-75
2022/03/09 04:22:08;;;;;;;;;;;;;;;2.95;43.77;101076.06;6112683;23;6986;-74
2022/03/09 04:24:34;;;;;;;;;;;;;;;2.96;44.15;101079.47;6113239;23;6983;-74
2022/03/09 04:27:00;;;;;;;;;;;;;;;2.94;44.23;101076.78;6111686;23;6770;-74
2022/03/09 04:29:25;;;;;;;;;;;;;;;2.95;44.38;101070.09;6132249;23;6881;-74
2022/03/09 04:31:51;;;;;;;;;;;;;;;2.96;44.58;101061.75;6112777;23;7074;-74
2022/03/09 04:34:17;;;;;;;;;;;;;;;2.98;44.35;101062.75;6064878;23;6937;-74
2022/03/09 04:36:42;;;;;;;;;;;;;;;2.99;44.14;101060.38;6112766;23;6774;-74
2022/03/09 04:39:08;;;;;;;;;;;;;;;3.04;44.77;101063.31;6113561;23;7990;-74
2022/03/09 04:41:34;;;;;;;;;;;;;;;3.09;44.44;101069.69;6110573;23;7187;-74
2022/03/09 04:43:59;;;;;;;;;;;;;;;3.15;44.31;101065.16;6087868;23;6910;-74
2022/03/09 04:46:25;;;;;;;;;;;;;;;3.23;44.89;101072.56;6112322;23;6927;-74
2022/03/09 04:48:51;;;;;;;;;;;;;;;3.30;43.68;101068.16;6110672;23;7110;-74
2022/03/09 04:51:17;;;;;;;;;;;;;;;3.36;43.65;101070.34;6112781;23;6770;-74
2022/03/09 04:53:42;;;;;;;;;;;;;;;3.42;43.75;101063.28;6087098;23;7127;-74
2022/03/09 04:56:08;;;;;;;;;;;;;;;3.48;43.01;101068.00;6112907;23;6770;-74
2022/03/09 04:58:34;;;;;;;;;;;;;;;3.52;43.47;101067.50;6111308;23;6791;-74
2022/03/09 05:01:00;;;;;;;;;;;;;;;3.55;43.98;101071.94;6111397;23;6767;-74
2022/03/09 05:03:26;;;;;;;;;;;;;;;3.56;44.03;101066.13;6112439;23;6774;-74
2022/03/09 05:05:52;;;;;;;;;;;;;;;3.55;44.12;101069.41;6111708;23;8257;-74
2022/03/09 05:08:17;;;;;;;;;;;;;;;3.53;43.89;101070.94;6112092;23;6841;-74
2022/03/09 05:10:43;;;;;;;;;;;;;;;3.52;43.40;101079.28;6112238;23;7070;-74
2022/03/09 05:13:09;;;;;;;;;;;;;;;3.49;43.43;101073.97;6111649;23;6838;-74
2022/03/09 05:15:34;;;;;;;;;;;;;;;3.48;43.72;101078.13;6115836;23;6849;-74
2022/03/09 05:18:00;;;;;;;;;;;;;;;3.46;43.06;101077.97;6090489;23;6767;-74
2022/03/09 05:20:26;;;;;;;;;;;;;;;3.44;43.49;101076.97;6117471;23;6859;-74
2022/03/09 05:22:52;;;;;;;;;;;;;;;3.40;43.66;101074.03;6115698;23;6838;-74
2022/03/09 05:25:19;;;;;;;;;;;;;;;3.37;44.23;101079.72;6115926;23;6778;-75
2022/03/09 05:27:45;;;;;;;;;;;;;;;3.33;44.30;101077.69;6090574;23;6815;-76
2022/03/09 05:30:12;;;;;;;;;;;;;;;3.28;44.13;101077.28;6066289;23;6965;-75
2022/03/09 05:32:40;;;;;;;;;;;;;;;3.25;44.32;101082.06;6089414;23;6970;-75
2022/03/09 05:35:07;;;;;;;;;;;;;;;3.23;43.85;101080.16;6090377;23;8252;-75
2022/03/09 05:37:41;;;;;;;;;;;;;;;3.19;43.81;101084.97;6115434;23;6989;-75
2022/03/09 05:40:09;;;;;;;;;;;;;;;3.16;44.02;101092.25;6114783;23;6936;-75
2022/03/09 05:42:35;;;;;;;;;;;;;;;3.15;44.55;101100.63;6090283;23;6791;-75
2022/03/09 05:45:02;;;;;;;;;;;;;;;3.13;43.85;101094.53;6115626;23;6791;-75
2022/03/09 05:47:28;;;;;;;;;;;;;;;3.10;43.70;101099.34;6113620;23;7067;-75
2022/03/09 05:49:54;;;;;;;;;;;;;;;3.09;44.00;101094.13;6115250;23;6893;-75
2022/03/09 05:52:19;;;;;;;;;;;;;;;3.04;44.43;101094.63;6089117;23;6834;-75
2022/03/09 05:54:45;;;;;;;;;;;;;;;3.02;44.32;101102.81;6114480;23;7102;-75
2022/03/09 05:57:21;;;;;;;;;;;;;;;3.00;44.64;101102.69;6116575;23;6767;-74
2022/03/09 05:59:48;;;;;;;;;;;;;;;2.98;44.10;101106.72;6114365;23;6937;-74
2022/03/09 06:02:14;;;;;;;;;;;;;;;2.96;44.67;101104.81;6114327;23;6950;-75
2022/03/09 06:04:39;;;;;;;;;;;;;;;2.96;44.73;101100.63;6114955;23;6770;-75
2022/03/09 06:07:05;;;;;;;;;;;;;;;2.96;43.92;101104.81;6114290;23;7210;-75
2022/03/09 06:09:31;;;;;;;;;;;;;;;2.96;44.54;101104.81;6115297;23;7302;-74
2022/03/09 06:11:57;;;;;;;;;;;;;;;2.95;44.85;101113.16;6113682;23;6881;-74
2022/03/09 06:14:23;;;;;;;;;;;;;;;2.95;44.59;101113.16;6115092;23;6775;-74
2022/03/09 06:16:49;;;;;;;;;;;;;;;2.96;44.34;101110.78;6115907;23;6870;-75
2022/03/09 06:19:16;;;;;;;;;;;;;;;2.97;44.40;101111.66;6117199;23;6778;-75
2022/03/09 06:21:42;;;;;;;;;;;;;;;2.99;45.02;101112.66;6114103;23;6951;-75
2022/03/09 06:24:08;;;;;;;;;;;;;;;3.02;44.73;101112.97;6090814;23;7903;-75
2022/03/09 06:26:34;;;;;;;;;;;;;;;3.05;44.90;101110.69;6115201;23;7065;-75
2022/03/09 06:29:00;;;;;;;;;;;;;;;3.09;44.59;101117.84;6090490;23;6840;-75
2022/03/09 06:31:26;;;;;;;;;;;;;;;3.13;44.90;101117.34;6138461;23;8594;-74
2022/03/09 06:33:51;;;;;;;;;;;;;;;3.17;44.40;101109.25;6114691;23;6842;-74
2022/03/09 06:36:17;;;;;;;;;;;;;;;3.24;44.84;101113.25;6089262;23;6919;-74
2022/03/09 06:38:43;;;;;;;;;;;;;;;3.29;44.47;101118.72;6135626;23;6861;-74
2022/03/09 06:41:09;;;;;;;;;;;;;;;3.32;44.51;101122.38;6111912;23;6866;-74
2022/03/09 06:43:34;;;;;;;;;;;;;;;3.39;44.69;101121.31;6115594;23;6982;-74
2022/03/09 06:46:00;;;;;;;;;;;;;;;3.44;44.65;101117.53;6113590;23;6910;-74
2022/03/09 06:48:26;;;;;;;;;;;;;;;3.50;44.32;101121.38;6090144;23;6925;-74
2022/03/09 06:50:52;;;;;;;;;;;;;;;3.57;44.90;101123.66;6087655;23;7134;-74
2022/03/09 06:53:17;;;;;;;;;;;;;;;3.64;44.64;101123.44;6087908;23;7002;-74
2022/03/09 06:55:43;;;;;;;;;;;;;;;3.71;44.27;101124.88;6137557;23;6847;-75
2022/03/09 06:58:10;;;;;;;;;;;;;;;3.79;44.52;101123.03;6138007;23;6778;-75
2022/03/09 07:00:36;;;;;;;;;;;;;;;3.86;44.16;101130.38;6115332;23;6791;-75
2022/03/09 07:03:05;;;;;;;;;;;;;;;3.93;44.60;101130.16;6113652;23;6794;-75
2022/03/09 07:05:32;;;;;;;;;;;;;;;3.99;44.54;101130.69;6091514;23;7804;-75
2022/03/09 07:07:59;;;;;;;;;;;;;;;4.07;44.10;101126.28;6116190;23;6790;-75
2022/03/09 07:10:24;;;;;;;;;;;;;;;4.15;43.76;101132.91;6114331;23;6866;-75
2022/03/09 07:12:50;;;;;;;;;;;;;;;4.25;43.75;101136.22;6115324;23;6975;-75
2022/03/09 07:15:16;;;;;;;;;;;;;;;4.34;44.02;101134.47;6090185;23;6937;-75
2022/03/09 07:17:46;;;;;;;;;;;;;;;4.44;43.48;101125.97;6116315;23;7039;-75
2022/03/09 07:20:13;;;;;;;;;;;;;;;4.55;44.07;101131.97;6114119;23;7054;-75
2022/03/09 07:22:40;;;;;;;;;;;;;;;4.66;44.16;101137.94;6089296;23;6787;-75
2022/03/09 07:25:07;;;;;;;;;;;;;;;4.75;42.91;101135.28;6113949;23;6783;-75
2022/03/09 07:27:33;;;;;;;;;;;;;;;4.84;44.00;101146.22;6115317;23;6862;-75
2022/03/09 07:29:58;;;;;;;;;;;;;;;4.94;43.13;101142.78;6090571;23;7329;-75
2022/03/09 07:32:24;;;;;;;;;;;;;;;5.04;43.48;101147.88;6088034;23;6865;-75
2022/03/09 07:34:50;;;;;;;;;;;;;;;5.13;42.90;101151.16;6114237;23;6774;-75
2022/03/09 07:37:15;;;;;;;;;;;;;;;5.22;42.52;101153.56;6113529;23;6814;-75
2022/03/09 07:39:41;;;;;;;;;;;;;;;5.33;43.08;101156.06;6114903;23;6770;-75
2022/03/09 07:42:07;;;;;;;;;;;;;;;5.41;42.52;101168.66;6113819;23;7030;-75
2022/03/09 07:44:33;;;;;;;;;;;;;;;5.53;42.82;101167.88;6138021;23;6778;-75
2022/03/09 07:46:59;;;;;;;;;;;;;;;5.62;42.55;101173.69;6115924;23;7388;-74
2022/03/09 07:49:25;;;;;;;;;;;;;;;5.72;42.83;101176.97;6113575;23;7165;-74
2022/03/09 07:51:51;;;;;;;;;;;;;;;5.81;42.38;101182.81;6115756;23;6849;-75
2022/03/09 07:54:17;;;;;;;;;;;;;;;5.90;42.04;101178.44;6114675;23;6910;-75
2022/03/09 07:56:44;;;;;;;;;;;;;;;6.02;42.29;101187.84;6114236;23;6770;-75
2022/03/09 07:59:11;;;;;;;;;;;;;;;6.11;42.10;101191.13;6114404;23;8389;-75
2022/03/09 08:01:40;;;;;;;;;;;;;;;6.21;42.32;101188.53;6111740;23;6964;-75
2022/03/09 08:04:07;;;;;;;;;;;;;;;6.32;42.25;101188.47;6115095;23;6783;-75
2022/03/09 08:06:34;;;;;;;;;;;;;;;6.43;41.99;101187.66;6113346;23;7067;-74
2022/03/09 08:09:00;;;;;;;;;;;;;;;6.54;42.07;101191.03;6112257;23;6786;-74
2022/03/09 08:11:26;;;;;;;;;;;;;;;6.64;41.59;101183.31;6087836;23;6779;-74
2022/03/09 08:13:53;;;;;;;;;;;;;;;6.76;41.78;101185.94;6114126;23;7030;-74
2022/03/09 08:16:19;;;;;;;;;;;;;;;6.88;41.56;101182.53;6111992;23;6771;-74
2022/03/09 08:18:44;;;;;;;;;;;;;;;7.01;41.42;101189.44;6113846;23;7140;-74
2022/03/09 08:21:10;;;;;;;;;;;;;;;7.12;41.06;101186.03;6112555;23;6782;-74
2022/03/09 08:23:36;;;;;;;;;;;;;;;7.22;40.85;101182.47;6137479;23;7869;-74
2022/03/09 08:26:02;;;;;;;;;;;;;;;7.33;40.73;101188.38;6088094;23;6771;-74
2022/03/09 08:28:27;;;;;;;;;;;;;;;7.43;41.11;101185.72;6112474;23;6767;-74
2022/03/09 08:30:54;;;;;;;;;;;;;;;7.52;40.91;101189.75;6111643;23;6983;-74
2022/03/09 08:33:20;;;;;;;;;;;;;;;7.63;40.45;101199.06;6112223;23;6778;-74
2022/03/09 08:35:46;;;;;;;;;;;;;;;7.71;40.48;101197.03;6114353;23;6978;-74
2022/03/09 08:38:11;;;;;;;;;;;;;;;7.78;40.14;101194.16;6110978;23;6782;-74
2022/03/09 08:40:37;;;;;;;;;;;;;;;7.87;40.80;101202.50;6088764;23;6846;-74
2022/03/09 08:43:03;;;;;;;;;;;;;;;7.96;40.03;101197.13;6088123;23;6954;-75
2022/03/09 08:45:29;;;;;;;;;;;;;;;8.07;40.69;101203.03;6088441;23;6762;-75
2022/03/09 08:47:54;;;;;;;;;;;;;;;8.16;40.12;101201.13;6088586;23;8086;-75
2022/03/09 08:50:20;;;;;;;;;;;;;;;8.27;40.63;101201.88;6113844;23;6790;-75
2022/03/09 08:52:46;;;;;;;;;;;;;;;8.37;39.66;101197.44;6113043;23;6766;-75
2022/03/09 08:55:11;;;;;;;;;;;;;;;8.48;39.71;101205.03;6111869;23;7094;-74
2022/03/09 08:57:37;;;;;;;;;;;;;;;8.61;39.73;101198.28;6112453;23;6802;-74
2022/03/09 09:00:05;;;;;;;;;;;;;;;8.73;39.54;101203.31;6111918;23;6790;-74
2022/03/09 09:02:31;;;;;;;;;;;;;;;8.84;39.56;101201.50;6111685;23;7059;-74
2022/03/09 09:04:58;;;;;;;;;;;;;;;8.94;40.48;101198.78;6115004;23;6771;-74
2022/03/09 09:07:24;;;;;;;;;;;;;;;9.08;40.13;101197.16;6088036;23;6799;-75
2022/03/09 09:09:50;;;;;;;;;;;;;;;9.20;38.87;101202.19;6113208;23;7194;-75
2022/03/09 09:12:16;;;;;;;;;;;;;;;9.34;39.32;101209.88;6111223;23;6865;-75
2022/03/09 09:14:42;;;;;;;;;;;;;;;9.46;39.47;101208.13;6112050;23;7254;-75
2022/03/09 09:17:08;;;;;;;;;;;;;;;9.57;38.29;101209.75;6112502;23;6807;-75
2022/03/09 09:19:34;;;;;;;;;;;;;;;9.68;39.53;101207.84;6112621;23;6877;-75
2022/03/09 09:22:01;;;;;;;;;;;;;;;9.78;39.24;101200.75;6113846;23;6787;-75
2022/03/09 09:24:27;;;;;;;;;;;;;;;9.86;38.10;101208.16;6113792;23;6779;-75
2022/03/09 09:26:53;;;;;;;;;;;;;;;9.97;38.76;101211.38;6116601;23;6782;-75
2022/03/09 09:29:19;;;;;;;;;;;;;;;10.07;37.75;101206.84;6115938;23;6786;-75
2022/03/09 09:31:48;;;;;;;;;;;;;;;10.18;38.17;101207.53;6114891;23;6929;-75
2022/03/09 09:34:16;;;;;;;;;;;;;;;10.28;37.31;101202.19;6115114;23;7267;-75
2022/03/09 09:36:45;;;;;;;;;;;;;;;10.40;37.69;101199.50;6112669;23;7038;-75
2022/03/09 09:39:13;;;;;;;;;;;;;;;10.51;37.88;101195.94;6114297;23;6783;-75
2022/03/09 09:41:43;;;;;;;;;;;;;;;10.62;37.34;101201.75;6110578;23;6783;-75
2022/03/09 09:44:13;;;;;;;;;;;;;;;10.71;37.62;101193.72;6114026;23;6783;-75
2022/03/09 09:46:41;;;;;;;;;;;;;;;10.84;37.09;101203.91;6113887;23;7014;-75
2022/03/09 09:49:13;;;;;;;;;;;;;;;10.96;36.61;101198.63;6113938;23;6787;-75
2022/03/09 09:51:45;;;;;;;;;;;;;;;11.07;36.72;101189.00;6113429;23;6994;-75
2022/03/09 09:54:13;;;;;;;;;;;;;;;11.17;36.38;101192.97;6089589;23;6839;-75
2022/03/09 09:56:42;;;;;;;;;;;;;;;11.29;36.44;101199.59;6090305;23;6867;-75
2022/03/09 09:59:09;;;;;;;;;;;;;;;11.37;36.21;101198.38;6114686;23;6809;-75
2022/03/09 10:01:37;;;;;;;;;;;;;;;11.44;36.35;101203.06;6090305;23;7014;-75
2022/03/09 10:04:05;;;;;;;;;;;;;;;11.55;36.17;101201.13;6092028;23;6779;-75
2022/03/09 10:06:31;;;;;;;;;;;;;;;11.66;35.58;101197.47;6117036;23;7922;-75
2022/03/09 10:09:13;;;;;;;;;;;;;;;11.80;36.12;101194.78;6091484;23;6930;-75
2022/03/09 10:11:55;;;;;;;;;;;;;;;11.91;35.68;101192.81;6114443;23;7779;-75
2022/03/09 10:14:53;;;;;;;;;;;;;;;12.01;35.70;101195.09;6089046;23;6961;-75
2022/03/09 10:17:21;;;;;;;;;;;;;;;12.14;35.80;101195.78;6114741;23;8703;-75
2022/03/09 10:19:50;;;;;;;;;;;;;;;12.25;35.20;101194.69;6065721;23;6990;-75
2022/03/09 10:22:41;;;;;;;;;;;;;;;12.42;35.62;101184.41;6089205;23;7851;-75
2022/03/09 10:25:19;;;;;;;;;;;;;;;12.58;35.11;101187.00;6091782;23;7111;-75
2022/03/09 10:27:48;;;;;;;;;;;;;;;12.86;34.84;101177.25;6113654;23;6803;-75
2022/03/09 10:30:33;;;;;;;;;;;;;;;13.69;35.05;101175.31;6090292;23;6851;-75
2022/03/09 10:33:02;;;;;;;;;;;;;;;15.15;33.63;101178.34;6113458;23;6786;-75
2022/03/09 10:35:30;;;;;;;;;;;;;;;16.70;32.39;101162.66;6113020;23;7156;-75
2022/03/09 10:38:20;;;;;;;;;;;;;;;18.10;31.19;101159.41;6115920;23;6806;-75
2022/03/09 10:40:50;;;;;;;;;;;;;;;19.53;29.92;101155.31;6067649;23;7998;-75
2022/03/09 10:43:23;;;;;;;;;;;;;;;20.62;28.68;101152.38;6112684;23;6775;-75
2022/03/09 10:46:09;;;;;;;;;;;;;;;21.53;28.06;101146.94;6114407;23;7047;-75
2022/03/09 10:48:46;;;;;;;;;;;;;;;22.33;27.48;101152.34;6115348;23;6790;-75
2022/03/09 10:51:38;;;;;;;;;;;;;;;22.97;27.09;101150.38;6114529;23;7047;-75
2022/03/09 10:54:09;;;;;;;;;;;;;;;23.61;26.38;101147.34;6114613;23;6778;-76
2022/03/09 10:56:38;;;;;;;;;;;;;;;24.19;25.75;101145.88;6113149;23;7008;-75
2022/03/09 10:59:11;;;;;;;;;;;;;;;24.59;24.89;101147.75;6090668;23;7336;-75
2022/03/09 11:01:38;;;;;;;;;;;;;;;24.93;24.68;101145.19;6117865;23;6778;-75
2022/03/09 11:04:30;;;;;;;;;;;;;;;25.35;23.89;101146.03;6115458;23;6810;-75
2022/03/09 11:06:57;;;;;;;;;;;;;;;25.75;23.79;101138.94;6091092;23;7147;-75
2022/03/09 11:09:23;;;;;;;;;;;;;;;26.09;23.51;101130.94;6124669;23;7098;-75
2022/03/09 11:11:50;;;;;;;;;;;;;;;26.31;23.30;101125.59;6097750;23;6864;-75
2022/03/09 11:14:19;;;;;;;;;;;;;;;26.43;22.90;101122.03;6095233;23;7387;-75
2022/03/09 11:16:47;;;;;;;;;;;;;;;26.56;22.53;101126.31;6118537;23;6783;-75
2022/03/09 11:19:14;;;;;;;;;;;;;;;26.74;22.19;101130.53;6119533;23;7390;-75
2022/03/09 11:21:41;;;;;;;;;;;;;;;26.89;21.95;101120.81;6065554;23;8450;-75
2022/03/09 11:24:11;;;;;;;;;;;;;;;26.97;21.98;101124.25;6138762;23;7807;-75
2022/03/09 11:26:55;;;;;;;;;;;;;;;27.16;21.66;101126.72;6090161;23;7130;-75
2022/03/09 11:29:35;;;;;;;;;;;;;;;27.49;21.23;101126.38;6090728;23;7199;-75
2022/03/09 11:32:04;;;;;;;;;;;;;;;27.73;21.31;101109.47;6114016;23;6913;-75
2022/03/09 11:34:49;;;;;;;;;;;;;;;27.93;20.66;101110.97;6089130;23;6775;-75
2022/03/09 11:37:34;;;;;;;;;;;;;;;28.16;20.80;101107.13;6113043;23;6779;-75
2022/03/09 11:40:06;;;;;;;;;;;;;;;28.39;20.22;101109.47;6093325;23;7055;-75
2022/03/09 11:42:39;;;;;;;;;;;;;;;28.54;20.31;101108.34;6118761;23;7796;-76
2022/03/09 11:45:14;;;;;;;;;;;;;;;28.75;20.22;101112.41;6116652;23;6778;-75
2022/03/09 11:48:09;;;;;;;;;;;;;;;28.95;20.16;101103.31;6117335;23;6779;-75
2022/03/09 11:51:03;;;;;;;;;;;;;;;29.10;19.68;101107.44;6139092;23;7145;-75
2022/03/09 11:53:42;;;;;;;;;;;;;;;29.16;18.97;101102.03;6113682;23;7162;-75
2022/03/09 11:56:36;;;;;;;;;;;;;;;29.15;18.52;101100.28;6114536;23;6986;-76
2022/03/09 11:59:26;;;;;;;;;;;;;;;29.09;19.13;101097.78;6114217;23;6791;-76
2022/03/09 12:01:57;;;;;;;;;;;;;;;29.15;18.49;101089.75;6111984;23;6794;-75
2022/03/09 12:04:50;;;;;;;;;;;;;;;29.17;18.57;101087.09;6114546;23;6779;-75
2022/03/09 12:07:28;;;;;;;;;;;;;;;29.21;18.40;101089.63;6112942;23;6787;-75
2022/03/09 12:10:03;;;;;;;;;;;;;;;29.20;18.72;101084.38;6088139;23;6961;-75
2022/03/09 12:12:32;;;;;;;;;;;;;;;29.16;18.22;101091.47;6114942;23;6851;-75
2022/03/09 12:15:10;;;;;;;;;;;;;;;29.05;17.46;101091.69;6114004;23;6774;-75
2022/03/09 12:17:47;;;;;;;;;;;;;;;29.01;17.66;101086.50;6113372;23;6786;-75
2022/03/09 12:20:45;;;;;;;;;;;;;;;29.00;17.26;101090.03;6136446;23;6786;-76
2022/03/09 12:23:15;;;;;;;;;;;;;;;28.87;17.20;101084.97;6085731;23;6772;-76
2022/03/09 12:25:48;;;;;;;;;;;;;;;28.69;16.96;101075.59;6113978;23;6771;-76
2022/03/09 12:28:29;;;;;;;;;;;;;;;28.58;17.43;101077.53;6111206;23;6937;-76
2022/03/09 12:30:59;;;;;;;;;;;;;;;28.52;17.58;101067.97;6113693;23;6926;-76
2022/03/09 12:33:30;;;;;;;;;;;;;;;28.55;17.75;101067.91;6112828;23;7912;-76
2022/03/09 12:36:20;;;;;;;;;;;;;;;27.93;17.83;101066.19;6114605;23;6771;-76
2022/03/09 12:39:07;;;;;;;;;;;;;;;26.50;18.29;101071.16;6066022;23;7236;-76
2022/03/09 12:41:38;;;;;;;;;;;;;;;25.15;18.84;101072.59;6087660;23;6794;-75
2022/03/09 12:44:16;;;;;;;;;;;;;;;23.79;18.87;101071.56;6113218;23;6948;-75
2022/03/09 12:46:45;;;;;;;;;;;;;;;22.69;19.87;101074.34;6088534;23;6995;-76
2022/03/09 12:49:23;;;;;;;;;;;;;;;21.78;20.12;101072.53;6112329;23;6917;-76
2022/03/09 12:51:53;;;;;;;;;;;;;;;21.06;20.69;101073.25;6091112;23;6783;-76
2022/03/09 12:54:34;;;;;;;;;;;;;;;20.50;20.80;101071.44;6112070;23;6928;-76
2022/03/09 12:57:10;;;;;;;;;;;;;;;20.05;21.74;101071.47;6112012;23;6779;-76
2022/03/09 12:59:42;;;;;;;;;;;;;;;19.74;21.62;101072.53;6114023;23;6939;-76
2022/03/09 13:02:08;;;;;;;;;;;;;;;19.45;21.91;101063.28;6113115;23;6945;-76